sensor_id;sensor_type;location;lat;lon;timestamp;temperature;humidity
13035;DHT22;6584;48.022;11.810;2023-03-01T00:00:54;0.40;99.90
13035;DHT22;6584;48.022;11.810;2023-03-01T00:03:20;0.50;99.90
13035;DHT22;6584;48.022;11.810;2023-03-01T00:05:46;0.50;99.90
13035;DHT22;6584;48.022;11.810;2023-03-01T00:08:12;0.40;99.90
13035;DHT22;6584;48.022;11.810;2023-03-01T00:10:38;0.40;99.90
13035;DHT22;6584;48.022;11.810;2023-03-01T00:13:04;0.30;99.90
13035;DHT22;6584;48.022;11.810;2023-03-01T00:15:31;0.30;99.90
13035;DHT22;6584;48.022;11.810;2023-03-01T00:17:57;0.30;99.90
13035;DHT22;6584;48.022;11.810;2023-03-01T00:20:23;0.40;99.90
13035;DHT22;6584;48.022;11.810;2023-03-01T00:22:48;0.40;99.90
13035;DHT22;6584;48.022;11.810;2023-03-01T00:25:14;0.40;99.90
13035;DHT22;6584;48.022;11.810;2023-03-01T00:27:39;0.40;99.90
13035;DHT22;6584;48.022;11.810;2023-03-01T00:30:06;0.30;99.90
13035;DHT22;6584;48.022;11.810;2023-03-01T00:32:31;0.30;99.90
13035;DHT22;6584;48.022;11.810;2023-03-01T00:34:57;0.40;99.90
13035;DHT22;6584;48.022;11.810;2023-03-01T00:37:24;0.40;99.90
13035;DHT22;6584;48.022;11.810;2023-03-01T00:39:49;0.40;99.90
13035;DHT22;6584;48.022;11.810;2023-03-01T00:42:16;0.40;99.90
13035;DHT22;6584;48.022;11.810;2023-03-01T00:44:41;0.40;99.90
13035;DHT22;6584;48.022;11.810;2023-03-01T00:47:07;0.50;99.90
13035;DHT22;6584;48.022;11.810;2023-03-01T00:49:34;0.50;99.90
13035;DHT22;6584;48.022;11.810;2023-03-01T00:51:59;0.40;99.90
13035;DHT22;6584;48.022;11.810;2023-03-01T00:54:25;0.30;99.90
13035;DHT22;6584;48.022;11.810;2023-03-01T00:56:50;0.30;99.90
13035;DHT22;6584;48.022;11.810;2023-03-01T00:59:16;0.30;99.90
13035;DHT22;6584;48.022;11.810;2023-03-01T01:01:41;0.30;99.90
13035;DHT22;6584;48.022;11.810;2023-03-01T01:04:10;0.40;99.90
13035;DHT22;6584;48.022;11.810;2023-03-01T01:06:45;0.40;99.90
13035;DHT22;6584;48.022;11.810;2023-03-01T01:09:13;0.30;99.90
13035;DHT22;6584;48.022;11.810;2023-03-01T01:11:47;0.30;99.90
13035;DHT22;6584;48.022;11.810;2023-03-01T01:14:13;0.30;99.90
13035;DHT22;6584;48.022;11.810;2023-03-01T01:16:39;0.20;99.90
13035;DHT22;6584;48.022;11.810;2023-03-01T01:19:05;0.20;99.90
13035;DHT22;6584;48.022;11.810;2023-03-01T01:21:31;0.20;99.90
13035;DHT22;6584;48.022;11.810;2023-03-01T01:23:57;0.20;99.90
13035;DHT22;6584;48.022;11.810;2023-03-01T01:26:29;0.20;99.90
13035;DHT22;6584;48.022;11.810;2023-03-01T01:28:55;0.20;99.90
13035;DHT22;6584;48.022;11.810;2023-03-01T01:31:21;0.20;99.90
13035;DHT22;6584;48.022;11.810;2023-03-01T01:33:49;0.20;99.90
13035;DHT22;6584;48.022;11.810;2023-03-01T01:36:15;0.30;99.90
13035;DHT22;6584;48.022;11.810;2023-03-01T01:38:41;0.20;99.90
13035;DHT22;6584;48.022;11.810;2023-03-01T01:41:08;0.20;99.90
13035;DHT22;6584;48.022;11.810;2023-03-01T01:43:43;0.10;99.90
13035;DHT22;6584;48.022;11.810;2023-03-01T01:48:54;0.20;99.90
13035;DHT22;6584;48.022;11.810;2023-03-01T01:51:25;0.10;99.90
13035;DHT22;6584;48.022;11.810;2023-03-01T01:53:56;0.10;99.90
13035;DHT22;6584;48.022;11.810;2023-03-01T01:56:24;0.20;99.90
13035;DHT22;6584;48.022;11.810;2023-03-01T01:58:52;0.20;99.90
13035;DHT22;6584;48.022;11.810;2023-03-01T02:01:18;0.20;99.90
13035;DHT22;6584;48.022;11.810;2023-03-01T02:03:45;0.10;99.90
13035;DHT22;6584;48.022;11.810;2023-03-01T02:06:37;0.10;99.90
13035;DHT22;6584;48.022;11.810;2023-03-01T02:09:07;0.10;99.90
13035;DHT22;6584;48.022;11.810;2023-03-01T02:11:36;0.00;99.90
13035;DHT22;6584;48.022;11.810;2023-03-01T02:14:03;0.00;99.90
13035;DHT22;6584;48.022;11.810;2023-03-01T02:16:29;0.10;99.90
13035;DHT22;6584;48.022;11.810;2023-03-01T02:18:56;0.20;99.90
13035;DHT22;6584;48.022;11.810;2023-03-01T02:21:37;0.10;99.90
13035;DHT22;6584;48.022;11.810;2023-03-01T02:24:17;0.00;99.90
13035;DHT22;6584;48.022;11.810;2023-03-01T02:26:50;0.00;99.90
13035;DHT22;6584;48.022;11.810;2023-03-01T02:29:16;-0.10;99.90
13035;DHT22;6584;48.022;11.810;2023-03-01T02:31:42;-0.10;99.90
13035;DHT22;6584;48.022;11.810;2023-03-01T02:34:14;0.00;99.90
13035;DHT22;6584;48.022;11.810;2023-03-01T02:39:14;0.10;99.90
13035;DHT22;6584;48.022;11.810;2023-03-01T02:41:48;0.00;99.90
13035;DHT22;6584;48.022;11.810;2023-03-01T02:44:14;-0.10;99.90
13035;DHT22;6584;48.022;11.810;2023-03-01T02:46:47;0.00;99.90
13035;DHT22;6584;48.022;11.810;2023-03-01T02:49:19;0.00;99.90
13035;DHT22;6584;48.022;11.810;2023-03-01T02:55:06;0.00;99.90
13035;DHT22;6584;48.022;11.810;2023-03-01T02:57:34;-0.10;99.90
13035;DHT22;6584;48.022;11.810;2023-03-01T03:00:07;-0.20;99.90
13035;DHT22;6584;48.022;11.810;2023-03-01T03:02:34;-0.20;99.90
13035;DHT22;6584;48.022;11.810;2023-03-01T03:05:06;-0.20;99.90
13035;DHT22;6584;48.022;11.810;2023-03-01T03:07:37;-0.20;99.90
13035;DHT22;6584;48.022;11.810;2023-03-01T03:10:06;-0.20;99.90
13035;DHT22;6584;48.022;11.810;2023-03-01T03:12:32;-0.20;99.90
13035;DHT22;6584;48.022;11.810;2023-03-01T03:14:57;-0.30;99.90
13035;DHT22;6584;48.022;11.810;2023-03-01T03:17:23;-0.30;99.90
13035;DHT22;6584;48.022;11.810;2023-03-01T03:19:49;-0.10;99.90
13035;DHT22;6584;48.022;11.810;2023-03-01T03:22:14;-0.10;99.90
13035;DHT22;6584;48.022;11.810;2023-03-01T03:24:40;-0.20;99.90
13035;DHT22;6584;48.022;11.810;2023-03-01T03:27:06;-0.20;99.90
13035;DHT22;6584;48.022;11.810;2023-03-01T03:29:32;-0.10;99.90
13035;DHT22;6584;48.022;11.810;2023-03-01T03:31:58;-0.10;99.90
13035;DHT22;6584;48.022;11.810;2023-03-01T03:34:24;-0.10;99.90
13035;DHT22;6584;48.022;11.810;2023-03-01T03:36:56;0.00;99.90
13035;DHT22;6584;48.022;11.810;2023-03-01T03:39:25;-0.20;99.90
13035;DHT22;6584;48.022;11.810;2023-03-01T03:41:52;-0.20;99.90
13035;DHT22;6584;48.022;11.810;2023-03-01T03:44:18;-0.30;99.90
13035;DHT22;6584;48.022;11.810;2023-03-01T03:46:44;-0.40;99.90
13035;DHT22;6584;48.022;11.810;2023-03-01T03:49:09;-0.40;99.90
13035;DHT22;6584;48.022;11.810;2023-03-01T03:51:35;-0.40;99.90
13035;DHT22;6584;48.022;11.810;2023-03-01T03:54:00;-0.40;99.90
13035;DHT22;6584;48.022;11.810;2023-03-01T03:56:26;-0.40;99.90
13035;DHT22;6584;48.022;11.810;2023-03-01T03:58:52;-0.50;99.90
13035;DHT22;6584;48.022;11.810;2023-03-01T04:01:18;-0.50;99.90
13035;DHT22;6584;48.022;11.810;2023-03-01T04:03:43;-0.50;99.90
13035;DHT22;6584;48.022;11.810;2023-03-01T04:06:12;-0.60;99.90
13035;DHT22;6584;48.022;11.810;2023-03-01T04:08:38;-0.50;99.90
13035;DHT22;6584;48.022;11.810;2023-03-01T04:11:05;-0.50;99.90
13035;DHT22;6584;48.022;11.810;2023-03-01T04:13:50;-0.50;99.90
13035;DHT22;6584;48.022;11.810;2023-03-01T04:16:16;-0.50;99.90
13035;DHT22;6584;48.022;11.810;2023-03-01T04:18:41;-0.30;99.90
13035;DHT22;6584;48.022;11.810;2023-03-01T04:21:07;-0.40;99.90
13035;DHT22;6584;48.022;11.810;2023-03-01T04:23:33;-0.50;99.90
13035;DHT22;6584;48.022;11.810;2023-03-01T04:25:59;-0.60;99.90
13035;DHT22;6584;48.022;11.810;2023-03-01T04:28:36;-0.60;99.90
13035;DHT22;6584;48.022;11.810;2023-03-01T04:31:05;-0.60;99.90
13035;DHT22;6584;48.022;11.810;2023-03-01T04:33:44;-0.80;99.90
13035;DHT22;6584;48.022;11.810;2023-03-01T04:36:12;-0.80;99.90
13035;DHT22;6584;48.022;11.810;2023-03-01T04:38:38;-0.80;99.90
13035;DHT22;6584;48.022;11.810;2023-03-01T04:41:06;-0.70;99.90
13035;DHT22;6584;48.022;11.810;2023-03-01T04:43:32;-0.80;99.90
13035;DHT22;6584;48.022;11.810;2023-03-01T04:46:04;-0.70;99.90
13035;DHT22;6584;48.022;11.810;2023-03-01T04:48:31;-0.70;99.90
13035;DHT22;6584;48.022;11.810;2023-03-01T04:50:59;-0.70;99.90
13035;DHT22;6584;48.022;11.810;2023-03-01T04:53:24;-0.80;99.90
13035;DHT22;6584;48.022;11.810;2023-03-01T04:55:50;-0.90;99.90
13035;DHT22;6584;48.022;11.810;2023-03-01T04:58:16;-0.80;99.90
13035;DHT22;6584;48.022;11.810;2023-03-01T05:00:42;-0.70;99.90
13035;DHT22;6584;48.022;11.810;2023-03-01T05:03:08;-0.80;99.90
13035;DHT22;6584;48.022;11.810;2023-03-01T05:05:36;-0.80;99.90
13035;DHT22;6584;48.022;11.810;2023-03-01T05:08:06;-0.80;99.90
13035;DHT22;6584;48.022;11.810;2023-03-01T05:10:35;-0.70;99.90
13035;DHT22;6584;48.022;11.810;2023-03-01T05:13:02;-0.70;99.90
13035;DHT22;6584;48.022;11.810;2023-03-01T05:15:30;-0.80;99.90
13035;DHT22;6584;48.022;11.810;2023-03-01T05:17:57;-0.80;99.90
13035;DHT22;6584;48.022;11.810;2023-03-01T05:20:29;-0.70;99.90
13035;DHT22;6584;48.022;11.810;2023-03-01T05:22:57;-0.80;99.90
13035;DHT22;6584;48.022;11.810;2023-03-01T05:25:24;-0.80;99.90
13035;DHT22;6584;48.022;11.810;2023-03-01T05:27:50;-0.80;99.90
13035;DHT22;6584;48.022;11.810;2023-03-01T05:30:16;-1.00;99.90
13035;DHT22;6584;48.022;11.810;2023-03-01T05:32:44;-1.00;99.90
13035;DHT22;6584;48.022;11.810;2023-03-01T05:35:12;-1.10;99.90
13035;DHT22;6584;48.022;11.810;2023-03-01T05:37:48;-1.00;99.90
13035;DHT22;6584;48.022;11.810;2023-03-01T05:40:16;-1.20;99.90
13035;DHT22;6584;48.022;11.810;2023-03-01T05:42:53;-1.20;99.90
13035;DHT22;6584;48.022;11.810;2023-03-01T05:45:20;-1.20;99.90
13035;DHT22;6584;48.022;11.810;2023-03-01T05:47:47;-1.20;99.90
13035;DHT22;6584;48.022;11.810;2023-03-01T05:50:18;-1.20;99.90
13035;DHT22;6584;48.022;11.810;2023-03-01T05:52:49;-1.20;99.90
13035;DHT22;6584;48.022;11.810;2023-03-01T05:55:17;-1.00;99.90
13035;DHT22;6584;48.022;11.810;2023-03-01T05:57:43;-1.10;99.90
13035;DHT22;6584;48.022;11.810;2023-03-01T06:00:09;-1.10;99.90
13035;DHT22;6584;48.022;11.810;2023-03-01T06:02:35;-1.10;99.90
13035;DHT22;6584;48.022;11.810;2023-03-01T06:05:01;-1.10;99.90
13035;DHT22;6584;48.022;11.810;2023-03-01T06:07:27;-1.10;99.90
13035;DHT22;6584;48.022;11.810;2023-03-01T06:09:53;-1.10;99.90
13035;DHT22;6584;48.022;11.810;2023-03-01T06:12:18;-1.10;99.90
13035;DHT22;6584;48.022;11.810;2023-03-01T06:14:45;-1.10;99.90
13035;DHT22;6584;48.022;11.810;2023-03-01T06:17:12;-1.00;99.90
13035;DHT22;6584;48.022;11.810;2023-03-01T06:19:37;-1.00;99.90
13035;DHT22;6584;48.022;11.810;2023-03-01T06:22:03;-1.10;99.90
13035;DHT22;6584;48.022;11.810;2023-03-01T06:24:28;-1.10;99.90
13035;DHT22;6584;48.022;11.810;2023-03-01T06:26:54;-1.10;99.90
13035;DHT22;6584;48.022;11.810;2023-03-01T06:29:21;-1.30;99.90
13035;DHT22;6584;48.022;11.810;2023-03-01T06:31:48;-1.30;99.90
13035;DHT22;6584;48.022;11.810;2023-03-01T06:34:14;-1.30;99.90
13035;DHT22;6584;48.022;11.810;2023-03-01T06:36:39;-1.20;99.90
13035;DHT22;6584;48.022;11.810;2023-03-01T06:39:05;-1.00;99.90
13035;DHT22;6584;48.022;11.810;2023-03-01T06:41:32;-0.90;99.90
13035;DHT22;6584;48.022;11.810;2023-03-01T06:43:58;-1.00;99.90
13035;DHT22;6584;48.022;11.810;2023-03-01T06:46:24;-1.00;99.90
13035;DHT22;6584;48.022;11.810;2023-03-01T06:48:49;-1.00;99.90
13035;DHT22;6584;48.022;11.810;2023-03-01T06:51:15;-1.00;99.90
13035;DHT22;6584;48.022;11.810;2023-03-01T06:53:40;-1.10;99.90
13035;DHT22;6584;48.022;11.810;2023-03-01T06:56:06;-1.40;99.90
13035;DHT22;6584;48.022;11.810;2023-03-01T06:58:32;-1.30;99.90
13035;DHT22;6584;48.022;11.810;2023-03-01T07:00:57;-1.20;99.90
13035;DHT22;6584;48.022;11.810;2023-03-01T07:03:23;-1.10;99.90
13035;DHT22;6584;48.022;11.810;2023-03-01T07:05:49;-1.10;99.90
13035;DHT22;6584;48.022;11.810;2023-03-01T07:08:17;-1.10;99.90
13035;DHT22;6584;48.022;11.810;2023-03-01T07:10:43;-1.10;99.90
13035;DHT22;6584;48.022;11.810;2023-03-01T07:13:08;-1.20;99.90
13035;DHT22;6584;48.022;11.810;2023-03-01T07:15:34;-1.20;99.90
13035;DHT22;6584;48.022;11.810;2023-03-01T07:18:00;-1.20;99.90
13035;DHT22;6584;48.022;11.810;2023-03-01T07:20:25;-1.20;99.90
13035;DHT22;6584;48.022;11.810;2023-03-01T07:22:52;-1.00;99.90
13035;DHT22;6584;48.022;11.810;2023-03-01T07:25:17;-1.00;99.90
13035;DHT22;6584;48.022;11.810;2023-03-01T07:27:43;-1.20;99.90
13035;DHT22;6584;48.022;11.810;2023-03-01T07:30:09;-1.10;99.90
13035;DHT22;6584;48.022;11.810;2023-03-01T07:32:35;-1.20;99.90
13035;DHT22;6584;48.022;11.810;2023-03-01T07:35:01;-1.30;99.90
13035;DHT22;6584;48.022;11.810;2023-03-01T07:37:26;-1.20;99.90
13035;DHT22;6584;48.022;11.810;2023-03-01T07:39:52;-1.00;99.90
13035;DHT22;6584;48.022;11.810;2023-03-01T07:42:17;-1.00;99.90
13035;DHT22;6584;48.022;11.810;2023-03-01T07:44:43;-0.90;99.90
13035;DHT22;6584;48.022;11.810;2023-03-01T07:47:08;-0.90;99.90
13035;DHT22;6584;48.022;11.810;2023-03-01T07:49:34;-0.80;99.90
13035;DHT22;6584;48.022;11.810;2023-03-01T07:52:00;-0.80;99.90
13035;DHT22;6584;48.022;11.810;2023-03-01T07:54:25;-0.80;99.90
13035;DHT22;6584;48.022;11.810;2023-03-01T07:56:51;-0.80;99.90
13035;DHT22;6584;48.022;11.810;2023-03-01T07:59:17;-0.90;99.90
13035;DHT22;6584;48.022;11.810;2023-03-01T08:01:42;-0.90;99.90
13035;DHT22;6584;48.022;11.810;2023-03-01T08:04:09;-0.80;99.90
13035;DHT22;6584;48.022;11.810;2023-03-01T08:06:37;-0.80;99.90
13035;DHT22;6584;48.022;11.810;2023-03-01T08:09:03;-0.60;99.90
13035;DHT22;6584;48.022;11.810;2023-03-01T08:11:28;-0.70;99.90
13035;DHT22;6584;48.022;11.810;2023-03-01T08:13:54;-0.60;99.90
13035;DHT22;6584;48.022;11.810;2023-03-01T08:16:20;-0.60;99.90
13035;DHT22;6584;48.022;11.810;2023-03-01T08:18:45;-0.60;99.90
13035;DHT22;6584;48.022;11.810;2023-03-01T08:21:14;-0.50;99.90
13035;DHT22;6584;48.022;11.810;2023-03-01T08:23:40;-0.50;99.90
13035;DHT22;6584;48.022;11.810;2023-03-01T08:26:09;-0.50;99.90
13035;DHT22;6584;48.022;11.810;2023-03-01T08:28:35;-0.50;99.90
13035;DHT22;6584;48.022;11.810;2023-03-01T08:31:01;-0.40;99.90
13035;DHT22;6584;48.022;11.810;2023-03-01T08:33:27;-0.40;99.90
13035;DHT22;6584;48.022;11.810;2023-03-01T08:35:52;-0.50;99.90
13035;DHT22;6584;48.022;11.810;2023-03-01T08:38:18;-0.40;99.90
13035;DHT22;6584;48.022;11.810;2023-03-01T08:40:43;-0.30;99.90
13035;DHT22;6584;48.022;11.810;2023-03-01T08:43:09;-0.40;99.90
13035;DHT22;6584;48.022;11.810;2023-03-01T08:45:36;-0.10;99.90
13035;DHT22;6584;48.022;11.810;2023-03-01T08:48:01;-0.20;99.90
13035;DHT22;6584;48.022;11.810;2023-03-01T08:50:27;-0.40;99.90
13035;DHT22;6584;48.022;11.810;2023-03-01T08:52:52;-0.60;99.90
13035;DHT22;6584;48.022;11.810;2023-03-01T08:55:18;-0.60;99.90
13035;DHT22;6584;48.022;11.810;2023-03-01T08:57:44;-0.50;99.90
13035;DHT22;6584;48.022;11.810;2023-03-01T09:00:10;-0.40;99.90
13035;DHT22;6584;48.022;11.810;2023-03-01T09:02:40;-0.20;99.90
13035;DHT22;6584;48.022;11.810;2023-03-01T09:05:05;-0.10;99.90
13035;DHT22;6584;48.022;11.810;2023-03-01T09:07:31;0.00;99.90
13035;DHT22;6584;48.022;11.810;2023-03-01T09:09:57;0.10;99.90
13035;DHT22;6584;48.022;11.810;2023-03-01T09:12:22;0.00;99.90
13035;DHT22;6584;48.022;11.810;2023-03-01T09:14:50;0.00;99.90
13035;DHT22;6584;48.022;11.810;2023-03-01T09:17:15;0.00;99.90
13035;DHT22;6584;48.022;11.810;2023-03-01T09:19:41;0.00;99.90
13035;DHT22;6584;48.022;11.810;2023-03-01T09:22:06;0.10;99.90
13035;DHT22;6584;48.022;11.810;2023-03-01T09:24:32;0.30;99.90
13035;DHT22;6584;48.022;11.810;2023-03-01T09:26:57;0.20;99.90
13035;DHT22;6584;48.022;11.810;2023-03-01T09:29:23;0.30;99.90
13035;DHT22;6584;48.022;11.810;2023-03-01T09:31:49;0.40;99.90
13035;DHT22;6584;48.022;11.810;2023-03-01T09:34:14;0.50;99.90
13035;DHT22;6584;48.022;11.810;2023-03-01T09:36:48;0.40;99.90
13035;DHT22;6584;48.022;11.810;2023-03-01T09:39:14;0.20;99.90
13035;DHT22;6584;48.022;11.810;2023-03-01T09:41:46;0.10;99.90
13035;DHT22;6584;48.022;11.810;2023-03-01T09:44:20;0.00;99.90
13035;DHT22;6584;48.022;11.810;2023-03-01T09:46:49;0.00;99.90
13035;DHT22;6584;48.022;11.810;2023-03-01T09:49:20;0.30;99.90
13035;DHT22;6584;48.022;11.810;2023-03-01T09:52:03;0.60;99.90
13035;DHT22;6584;48.022;11.810;2023-03-01T09:54:32;0.90;99.90
13035;DHT22;6584;48.022;11.810;2023-03-01T09:57:19;0.70;99.90
13035;DHT22;6584;48.022;11.810;2023-03-01T09:59:58;0.50;99.90
13035;DHT22;6584;48.022;11.810;2023-03-01T10:05:10;0.50;99.90
13035;DHT22;6584;48.022;11.810;2023-03-01T10:07:44;0.60;99.90
13035;DHT22;6584;48.022;11.810;2023-03-01T10:13:03;0.70;99.90
13035;DHT22;6584;48.022;11.810;2023-03-01T10:15:38;0.90;99.90
13035;DHT22;6584;48.022;11.810;2023-03-01T10:18:14;0.70;99.90
13035;DHT22;6584;48.022;11.810;2023-03-01T10:20:56;0.80;99.90
13035;DHT22;6584;48.022;11.810;2023-03-01T10:23:24;0.80;99.90
13035;DHT22;6584;48.022;11.810;2023-03-01T10:29:03;0.60;99.90
13035;DHT22;6584;48.022;11.810;2023-03-01T10:31:50;0.70;99.90
13035;DHT22;6584;48.022;11.810;2023-03-01T10:34:19;0.40;99.90
13035;DHT22;6584;48.022;11.810;2023-03-01T10:36:49;0.40;99.90
13035;DHT22;6584;48.022;11.810;2023-03-01T10:39:19;0.40;99.90
13035;DHT22;6584;48.022;11.810;2023-03-01T10:41:54;0.10;99.90
13035;DHT22;6584;48.022;11.810;2023-03-01T10:47:08;0.30;99.90
13035;DHT22;6584;48.022;11.810;2023-03-01T10:49:37;0.30;99.90
13035;DHT22;6584;48.022;11.810;2023-03-01T10:52:20;0.60;99.90
13035;DHT22;6584;48.022;11.810;2023-03-01T10:55:42;0.80;99.90
13035;DHT22;6584;48.022;11.810;2023-03-01T10:57:42;1.00;99.90
13035;DHT22;6584;48.022;11.810;2023-03-01T11:02:45;1.10;99.90
13035;DHT22;6584;48.022;11.810;2023-03-01T11:05:21;1.00;99.90
13035;DHT22;6584;48.022;11.810;2023-03-01T11:07:52;1.30;99.90
13035;DHT22;6584;48.022;11.810;2023-03-01T11:10:24;1.20;99.90
13035;DHT22;6584;48.022;11.810;2023-03-01T11:12:51;1.20;99.90
13035;DHT22;6584;48.022;11.810;2023-03-01T11:15:28;1.30;99.90
13035;DHT22;6584;48.022;11.810;2023-03-01T11:17:54;0.90;99.90
13035;DHT22;6584;48.022;11.810;2023-03-01T11:22:56;0.90;99.90
13035;DHT22;6584;48.022;11.810;2023-03-01T11:25:33;1.00;99.90
13035;DHT22;6584;48.022;11.810;2023-03-01T11:28:03;1.20;99.90
13035;DHT22;6584;48.022;11.810;2023-03-01T11:30:44;1.20;99.90
13035;DHT22;6584;48.022;11.810;2023-03-01T11:36:21;1.70;99.90
13035;DHT22;6584;48.022;11.810;2023-03-01T11:38:49;2.00;99.90
13035;DHT22;6584;48.022;11.810;2023-03-01T11:41:18;2.00;99.90
13035;DHT22;6584;48.022;11.810;2023-03-01T12:05:41;2.40;99.90
13035;DHT22;6584;48.022;11.810;2023-03-01T12:08:14;2.20;99.90
13035;DHT22;6584;48.022;11.810;2023-03-01T12:11:10;2.10;99.90
13035;DHT22;6584;48.022;11.810;2023-03-01T12:16:50;2.40;99.90
13035;DHT22;6584;48.022;11.810;2023-03-01T12:36:10;2.80;99.90
13035;DHT22;6584;48.022;11.810;2023-03-01T12:38:57;2.90;99.90
13035;DHT22;6584;48.022;11.810;2023-03-01T12:41:31;2.90;99.90
13035;DHT22;6584;48.022;11.810;2023-03-01T12:50:24;2.50;99.90
13035;DHT22;6584;48.022;11.810;2023-03-01T12:52:57;2.70;99.90
13035;DHT22;6584;48.022;11.810;2023-03-01T13:00:45;2.80;99.90
13035;DHT22;6584;48.022;11.810;2023-03-01T13:03:28;2.60;99.90
13035;DHT22;6584;48.022;11.810;2023-03-01T13:06:22;2.60;99.90
13035;DHT22;6584;48.022;11.810;2023-03-01T13:09:02;2.80;99.90
13035;DHT22;6584;48.022;11.810;2023-03-01T13:11:29;2.90;99.90
13035;DHT22;6584;48.022;11.810;2023-03-01T13:16:54;3.10;99.90
13035;DHT22;6584;48.022;11.810;2023-03-01T13:19:23;3.10;99.90
13035;DHT22;6584;48.022;11.810;2023-03-01T13:21:52;3.00;99.90
13035;DHT22;6584;48.022;11.810;2023-03-01T13:24:38;3.10;99.90
13035;DHT22;6584;48.022;11.810;2023-03-01T13:29:48;3.00;99.90
13035;DHT22;6584;48.022;11.810;2023-03-01T13:32:28;3.10;99.90
13035;DHT22;6584;48.022;11.810;2023-03-01T13:35:01;3.20;99.90
13035;DHT22;6584;48.022;11.810;2023-03-01T13:37:37;3.40;99.90
13035;DHT22;6584;48.022;11.810;2023-03-01T13:42:53;3.40;99.90
13035;DHT22;6584;48.022;11.810;2023-03-01T13:45:25;3.40;99.90
13035;DHT22;6584;48.022;11.810;2023-03-01T13:48:00;3.30;99.90
13035;DHT22;6584;48.022;11.810;2023-03-01T13:50:35;3.20;99.90
13035;DHT22;6584;48.022;11.810;2023-03-01T13:53:05;3.30;99.90
13035;DHT22;6584;48.022;11.810;2023-03-01T13:55:51;3.30;99.90
13035;DHT22;6584;48.022;11.810;2023-03-01T13:58:30;3.40;99.90
13035;DHT22;6584;48.022;11.810;2023-03-01T14:01:18;3.30;99.90
13035;DHT22;6584;48.022;11.810;2023-03-01T14:03:45;3.40;99.90
13035;DHT22;6584;48.022;11.810;2023-03-01T14:06:16;3.60;99.90
13035;DHT22;6584;48.022;11.810;2023-03-01T14:08:45;3.70;99.90
13035;DHT22;6584;48.022;11.810;2023-03-01T14:11:30;3.70;99.90
13035;DHT22;6584;48.022;11.810;2023-03-01T14:14:24;3.70;99.90
13035;DHT22;6584;48.022;11.810;2023-03-01T14:20:00;3.60;99.90
13035;DHT22;6584;48.022;11.810;2023-03-01T14:22:30;3.70;99.90
13035;DHT22;6584;48.022;11.810;2023-03-01T14:25:06;3.70;99.90
13035;DHT22;6584;48.022;11.810;2023-03-01T14:27:42;3.70;99.90
13035;DHT22;6584;48.022;11.810;2023-03-01T14:30:16;3.80;99.90
13035;DHT22;6584;48.022;11.810;2023-03-01T14:32:58;3.80;99.90
13035;DHT22;6584;48.022;11.810;2023-03-01T14:35:28;3.80;99.90
13035;DHT22;6584;48.022;11.810;2023-03-01T14:37:54;3.80;99.90
13035;DHT22;6584;48.022;11.810;2023-03-01T14:42:50;3.90;99.90
13035;DHT22;6584;48.022;11.810;2023-03-01T14:45:16;4.00;99.90
13035;DHT22;6584;48.022;11.810;2023-03-01T14:47:44;4.00;99.90
13035;DHT22;6584;48.022;11.810;2023-03-01T14:50:23;4.10;99.90
13035;DHT22;6584;48.022;11.810;2023-03-01T14:52:52;4.20;99.90
13035;DHT22;6584;48.022;11.810;2023-03-01T14:55:26;4.20;99.90
13035;DHT22;6584;48.022;11.810;2023-03-01T14:57:53;4.30;99.90
13035;DHT22;6584;48.022;11.810;2023-03-01T15:00:22;4.30;99.90
13035;DHT22;6584;48.022;11.810;2023-03-01T15:02:50;4.30;99.90
13035;DHT22;6584;48.022;11.810;2023-03-01T15:05:21;4.30;99.90
13035;DHT22;6584;48.022;11.810;2023-03-01T15:07:47;4.30;99.90
13035;DHT22;6584;48.022;11.810;2023-03-01T15:10:23;4.20;99.90
13035;DHT22;6584;48.022;11.810;2023-03-01T15:12:49;4.20;99.90
13035;DHT22;6584;48.022;11.810;2023-03-01T15:15:35;4.20;99.90
13035;DHT22;6584;48.022;11.810;2023-03-01T15:18:17;4.20;99.90
13035;DHT22;6584;48.022;11.810;2023-03-01T15:20:44;4.10;99.90
13035;DHT22;6584;48.022;11.810;2023-03-01T15:23:29;4.10;99.90
13035;DHT22;6584;48.022;11.810;2023-03-01T15:25:56;4.10;99.90
13035;DHT22;6584;48.022;11.810;2023-03-01T15:28:25;4.00;99.90
13035;DHT22;6584;48.022;11.810;2023-03-01T15:33:38;3.90;99.90
13035;DHT22;6584;48.022;11.810;2023-03-01T15:36:37;3.90;99.90
13035;DHT22;6584;48.022;11.810;2023-03-01T15:39:04;3.90;99.90
13035;DHT22;6584;48.022;11.810;2023-03-01T15:41:46;3.80;99.90
13035;DHT22;6584;48.022;11.810;2023-03-01T15:44:17;3.80;99.90
13035;DHT22;6584;48.022;11.810;2023-03-01T15:46:46;3.80;99.90
13035;DHT22;6584;48.022;11.810;2023-03-01T15:49:26;3.70;99.90
13035;DHT22;6584;48.022;11.810;2023-03-01T15:51:54;3.60;99.90
13035;DHT22;6584;48.022;11.810;2023-03-01T15:54:22;3.60;99.90
13035;DHT22;6584;48.022;11.810;2023-03-01T15:56:48;3.60;99.90
13035;DHT22;6584;48.022;11.810;2023-03-01T15:59:14;3.50;99.90
13035;DHT22;6584;48.022;11.810;2023-03-01T16:01:43;3.50;99.90
13035;DHT22;6584;48.022;11.810;2023-03-01T16:04:10;3.50;99.90
13035;DHT22;6584;48.022;11.810;2023-03-01T16:06:38;3.50;99.90
13035;DHT22;6584;48.022;11.810;2023-03-01T16:09:04;3.40;99.90
13035;DHT22;6584;48.022;11.810;2023-03-01T16:11:30;3.40;99.90
13035;DHT22;6584;48.022;11.810;2023-03-01T16:13:57;3.40;99.90
13035;DHT22;6584;48.022;11.810;2023-03-01T16:16:23;3.30;99.90
13035;DHT22;6584;48.022;11.810;2023-03-01T16:18:48;3.30;99.90
13035;DHT22;6584;48.022;11.810;2023-03-01T16:21:18;3.30;99.90
13035;DHT22;6584;48.022;11.810;2023-03-01T16:23:44;3.20;99.90
13035;DHT22;6584;48.022;11.810;2023-03-01T16:26:11;3.20;99.90
13035;DHT22;6584;48.022;11.810;2023-03-01T16:28:38;3.20;99.90
13035;DHT22;6584;48.022;11.810;2023-03-01T16:31:04;3.10;99.90
13035;DHT22;6584;48.022;11.810;2023-03-01T16:33:31;3.10;99.90
13035;DHT22;6584;48.022;11.810;2023-03-01T16:35:56;3.00;99.90
13035;DHT22;6584;48.022;11.810;2023-03-01T16:38:23;3.00;99.90
13035;DHT22;6584;48.022;11.810;2023-03-01T16:40:50;2.90;99.90
13035;DHT22;6584;48.022;11.810;2023-03-01T16:43:16;2.90;99.90
13035;DHT22;6584;48.022;11.810;2023-03-01T16:45:42;2.80;99.90
13035;DHT22;6584;48.022;11.810;2023-03-01T16:48:10;2.70;99.90
13035;DHT22;6584;48.022;11.810;2023-03-01T16:50:35;2.60;99.90
13035;DHT22;6584;48.022;11.810;2023-03-01T16:53:01;2.50;99.90
13035;DHT22;6584;48.022;11.810;2023-03-01T16:55:27;2.50;99.90
13035;DHT22;6584;48.022;11.810;2023-03-01T16:57:53;2.50;99.90
13035;DHT22;6584;48.022;11.810;2023-03-01T17:00:19;2.40;99.90
13035;DHT22;6584;48.022;11.810;2023-03-01T17:02:45;2.40;99.90
13035;DHT22;6584;48.022;11.810;2023-03-01T17:05:10;2.30;99.90
13035;DHT22;6584;48.022;11.810;2023-03-01T17:07:37;2.30;99.90
13035;DHT22;6584;48.022;11.810;2023-03-01T17:10:05;2.20;99.90
13035;DHT22;6584;48.022;11.810;2023-03-01T17:12:31;2.20;99.90
13035;DHT22;6584;48.022;11.810;2023-03-01T17:14:58;2.10;99.90
13035;DHT22;6584;48.022;11.810;2023-03-01T17:17:23;2.00;99.90
13035;DHT22;6584;48.022;11.810;2023-03-01T17:19:49;1.80;99.90
13035;DHT22;6584;48.022;11.810;2023-03-01T17:22:15;1.80;99.90
13035;DHT22;6584;48.022;11.810;2023-03-01T17:24:42;1.80;99.90
13035;DHT22;6584;48.022;11.810;2023-03-01T17:27:09;1.80;99.90
13035;DHT22;6584;48.022;11.810;2023-03-01T17:29:36;1.80;99.90